Time;durP1;ratioP1;P1;durP2;ratioP2;P2;SDS_P1;SDS_P2;PMS_P1;PMS_P2;Temp;Humidity;BMP_temperature;BMP_pressure;BME280_temperature;BME280_humidity;BME280_pressure;Samples;Min_cycle;Max_cycle;Signal;HPM_P1;HPM_P2
2023/08/18 00:01:25;;;;;;;9.25;5.95;;;18.20;99.90;;;;;;4901100;29;20036;-85
2023/08/18 00:03:51;;;;;;;12.55;5.25;;;18.10;99.90;;;;;;4901349;29;20040;-85
2023/08/18 00:06:16;;;;;;;11.63;5.82;;;18.10;99.90;;;;;;4899215;29;20036;-87
2023/08/18 00:08:42;;;;;;;8.18;4.90;;;18.10;99.90;;;;;;4899640;29;20043;-84
2023/08/18 00:11:08;;;;;;;8.60;5.10;;;18.10;99.90;;;;;;4900928;29;20036;-86
2023/08/18 00:13:34;;;;;;;8.48;5.90;;;18.10;99.90;;;;;;4901445;29;20645;-85
2023/08/18 00:15:59;;;;;;;5.90;4.80;;;18.10;99.90;;;;;;4900722;29;20070;-85
2023/08/18 00:18:25;;;;;;;10.77;5.28;;;18.10;99.90;;;;;;4900084;29;20036;-86
2023/08/18 00:20:51;;;;;;;8.43;4.97;;;18.10;99.90;;;;;;4899533;29;20112;-86
2023/08/18 00:23:16;;;;;;;8.65;4.35;;;18.10;99.90;;;;;;4898773;29;20047;-85
2023/08/18 00:25:42;;;;;;;7.90;4.68;;;18.00;99.90;;;;;;4898524;29;20038;-85
2023/08/18 00:28:07;;;;;;;6.50;4.40;;;18.00;99.90;;;;;;4900106;29;21497;-85
2023/08/18 00:30:33;;;;;;;7.40;4.38;;;18.00;99.90;;;;;;4900843;29;20032;-87
2023/08/18 00:32:59;;;;;;;7.75;4.93;;;17.90;99.90;;;;;;4903316;29;20028;-86
2023/08/18 00:35:25;;;;;;;7.38;4.60;;;17.90;99.90;;;;;;4901909;29;20881;-86
2023/08/18 00:37:51;;;;;;;7.03;4.90;;;17.90;99.90;;;;;;4901165;29;20036;-85
2023/08/18 00:40:16;;;;;;;12.23;5.78;;;17.90;99.90;;;;;;4901564;29;20563;-85
2023/08/18 00:42:42;;;;;;;7.10;4.22;;;17.80;99.90;;;;;;4901910;29;20024;-85
2023/08/18 00:45:08;;;;;;;11.32;4.90;;;17.80;99.90;;;;;;4901808;29;20045;-85
2023/08/18 00:47:35;;;;;;;9.35;4.32;;;17.80;99.90;;;;;;4900652;29;20582;-85
2023/08/18 00:50:02;;;;;;;8.23;4.40;;;17.80;99.90;;;;;;4900955;29;20044;-85
2023/08/18 00:52:28;;;;;;;6.80;4.35;;;17.70;99.90;;;;;;4902144;29;20040;-85
2023/08/18 00:54:54;;;;;;;8.77;4.20;;;17.80;99.90;;;;;;4900259;29;20032;-87
2023/08/18 00:57:20;;;;;;;6.35;4.10;;;17.70;99.90;;;;;;4900219;29;20062;-85
2023/08/18 00:59:46;;;;;;;8.43;4.28;;;17.70;99.90;;;;;;4898787;29;20035;-85
2023/08/18 01:02:12;;;;;;;6.53;3.47;;;17.70;99.90;;;;;;4900925;29;20067;-85
2023/08/18 01:04:38;;;;;;;4.72;3.67;;;17.70;99.90;;;;;;4901801;29;20032;-87
2023/08/18 01:07:04;;;;;;;4.47;3.60;;;17.70;99.90;;;;;;4900375;29;21285;-85
2023/08/18 01:09:30;;;;;;;8.52;3.50;;;17.70;99.90;;;;;;4898909;29;20408;-87
2023/08/18 01:12:27;;;;;;;4.75;3.58;;;17.70;99.90;;;;;;4900726;29;20040;-85
2023/08/18 01:15:06;;;;;;;7.65;3.83;;;17.70;99.90;;;;;;4900453;29;20032;-86
2023/08/18 01:17:47;;;;;;;6.97;3.53;;;17.60;99.90;;;;;;4898702;29;20033;-87
2023/08/18 01:20:13;;;;;;;5.78;3.60;;;17.60;99.90;;;;;;4900896;29;20395;-85
2023/08/18 01:22:40;;;;;;;6.95;4.07;;;17.60;99.90;;;;;;4899506;29;20033;-85
2023/08/18 01:25:06;;;;;;;7.38;4.20;;;17.60;99.90;;;;;;4901256;29;20107;-85
2023/08/18 01:27:33;;;;;;;8.05;3.78;;;17.50;99.90;;;;;;4899404;29;20028;-86
2023/08/18 01:30:00;;;;;;;5.30;3.50;;;17.60;99.90;;;;;;4899190;29;20496;-85
2023/08/18 01:32:29;;;;;;;4.93;3.80;;;17.50;99.90;;;;;;4900326;29;20136;-85
2023/08/18 01:34:55;;;;;;;6.90;3.67;;;17.50;99.90;;;;;;4899443;29;20024;-86
2023/08/18 01:37:21;;;;;;;5.88;3.85;;;17.50;99.90;;;;;;4902077;29;20095;-85
2023/08/18 01:39:47;;;;;;;7.47;3.72;;;17.50;99.90;;;;;;4902484;29;20047;-86
2023/08/18 01:42:13;;;;;;;6.68;3.67;;;17.40;99.90;;;;;;4903160;29;20029;-85
2023/08/18 01:44:39;;;;;;;9.43;3.75;;;17.40;99.90;;;;;;4903764;29;20042;-87
2023/08/18 01:47:04;;;;;;;6.30;3.90;;;17.40;99.90;;;;;;4902900;29;20801;-85
2023/08/18 01:49:30;;;;;;;4.85;3.38;;;17.40;99.90;;;;;;4903871;29;20032;-86
2023/08/18 01:51:55;;;;;;;6.15;3.65;;;17.40;99.90;;;;;;4900357;29;20024;-86
2023/08/18 01:54:21;;;;;;;4.97;3.55;;;17.30;99.90;;;;;;4904510;29;20183;-85
2023/08/18 01:56:47;;;;;;;6.13;4.03;;;17.30;99.90;;;;;;4902786;29;20116;-86
2023/08/18 01:59:14;;;;;;;7.45;3.70;;;17.30;99.90;;;;;;4902984;29;20024;-85
2023/08/18 02:01:40;;;;;;;5.63;3.60;;;17.30;99.90;;;;;;4903113;29;20127;-88
2023/08/18 02:04:06;;;;;;;3.78;3.30;;;17.20;99.90;;;;;;4904309;29;20035;-85
2023/08/18 02:06:31;;;;;;;6.10;3.72;;;17.20;99.90;;;;;;4903153;29;20048;-85
2023/08/18 02:08:57;;;;;;;7.32;3.30;;;17.20;99.90;;;;;;4904228;29;20028;-87
2023/08/18 02:11:22;;;;;;;6.50;3.50;;;17.20;99.90;;;;;;4901085;29;20206;-86
2023/08/18 02:13:48;;;;;;;6.65;3.28;;;17.20;99.90;;;;;;4902782;29;20080;-85
2023/08/18 02:16:13;;;;;;;5.90;3.53;;;17.20;99.90;;;;;;4902257;29;20067;-85
2023/08/18 02:18:39;;;;;;;5.30;3.85;;;17.20;99.90;;;;;;4902632;29;20029;-85
2023/08/18 02:21:05;;;;;;;7.22;3.40;;;17.20;99.90;;;;;;4905395;29;20035;-85
2023/08/18 02:23:31;;;;;;;6.10;3.33;;;17.20;99.90;;;;;;4903541;29;20028;-86
2023/08/18 02:26:04;;;;;;;6.15;3.50;;;17.20;99.90;;;;;;4903214;29;20040;-85
2023/08/18 02:28:30;;;;;;;6.70;3.22;;;17.20;99.90;;;;;;4902211;29;21512;-85
2023/08/18 02:30:59;;;;;;;7.65;3.60;;;17.20;99.90;;;;;;4906629;29;20060;-85
2023/08/18 02:33:26;;;;;;;5.72;3.80;;;17.10;99.90;;;;;;4904109;29;20032;-85
2023/08/18 02:35:51;;;;;;;6.07;3.63;;;17.10;99.90;;;;;;4904278;29;20461;-86
2023/08/18 02:38:17;;;;;;;6.65;3.53;;;17.00;99.90;;;;;;4907120;29;20044;-86
2023/08/18 02:40:43;;;;;;;6.03;3.60;;;17.00;99.90;;;;;;4904031;29;20045;-84
2023/08/18 02:43:09;;;;;;;10.38;3.58;;;16.90;99.90;;;;;;4904823;29;20043;-86
2023/08/18 02:45:34;;;;;;;5.65;3.60;;;16.90;99.90;;;;;;4905645;29;20091;-85
2023/08/18 02:48:00;;;;;;;3.83;3.40;;;16.90;99.90;;;;;;4903839;29;21453;-86
2023/08/18 02:50:25;;;;;;;6.03;3.88;;;16.80;99.90;;;;;;4904674;29;20123;-85
2023/08/18 02:52:51;;;;;;;4.55;3.85;;;16.80;99.90;;;;;;4905407;29;20029;-85
2023/08/18 02:55:16;;;;;;;7.60;4.00;;;16.80;99.90;;;;;;4905787;29;20052;-85
2023/08/18 02:57:42;;;;;;;7.28;4.05;;;16.70;99.90;;;;;;4905945;29;20124;-85
2023/08/18 03:00:08;;;;;;;7.20;3.80;;;16.70;99.90;;;;;;4905115;29;20529;-85
2023/08/18 03:02:34;;;;;;;8.18;3.53;;;16.60;99.90;;;;;;4904462;29;20686;-85
2023/08/18 03:04:59;;;;;;;6.45;3.72;;;16.60;99.90;;;;;;4904124;29;20163;-88
2023/08/18 03:07:25;;;;;;;6.72;3.70;;;16.60;99.90;;;;;;4902810;29;20036;-84
2023/08/18 03:09:50;;;;;;;10.30;3.72;;;16.60;99.90;;;;;;4904813;29;20079;-85
2023/08/18 03:12:16;;;;;;;4.40;3.50;;;16.60;99.90;;;;;;4903785;29;20772;-84
2023/08/18 03:14:41;;;;;;;6.30;3.60;;;16.60;99.90;;;;;;4904010;29;20033;-86
2023/08/18 03:17:07;;;;;;;5.32;3.80;;;16.50;99.90;;;;;;4904441;29;20051;-85
2023/08/18 03:19:32;;;;;;;7.53;4.10;;;16.50;99.90;;;;;;4901403;29;20404;-85
2023/08/18 03:21:58;;;;;;;8.63;3.70;;;16.40;99.90;;;;;;4906023;29;20025;-84
2023/08/18 03:24:24;;;;;;;6.30;4.03;;;16.40;99.90;;;;;;4904999;29;20589;-85
2023/08/18 03:26:50;;;;;;;6.13;3.95;;;16.40;99.90;;;;;;4904055;29;21433;-85
2023/08/18 03:29:17;;;;;;;6.13;4.00;;;16.40;99.90;;;;;;4904382;29;20043;-85
2023/08/18 03:31:42;;;;;;;5.07;3.65;;;16.30;99.90;;;;;;4902431;29;20115;-85
2023/08/18 03:34:08;;;;;;;7.45;3.85;;;16.30;99.90;;;;;;4905417;29;20555;-85
2023/08/18 03:36:33;;;;;;;6.22;4.07;;;16.30;99.90;;;;;;4903328;29;20024;-87
2023/08/18 03:38:59;;;;;;;4.40;4.00;;;16.30;99.90;;;;;;4902882;29;20047;-84
2023/08/18 03:41:24;;;;;;;9.13;3.88;;;16.30;99.90;;;;;;4901167;29;20020;-84
2023/08/18 03:43:50;;;;;;;6.18;3.70;;;16.30;99.90;;;;;;4903649;29;20043;-84
2023/08/18 03:46:28;;;;;;;5.22;3.75;;;16.30;99.90;;;;;;4901563;29;20037;-87
2023/08/18 03:48:54;;;;;;;5.18;4.28;;;16.20;99.90;;;;;;4901970;29;20096;-86
2023/08/18 03:51:20;;;;;;;5.40;3.78;;;16.20;99.90;;;;;;4901329;29;20116;-86
2023/08/18 03:53:46;;;;;;;6.63;3.60;;;16.20;99.90;;;;;;4901583;29;20851;-85
2023/08/18 03:56:12;;;;;;;8.38;3.95;;;16.20;99.90;;;;;;4901161;29;20032;-86
2023/08/18 03:58:37;;;;;;;9.38;3.88;;;16.10;99.90;;;;;;4900744;29;20072;-84
2023/08/18 04:01:05;;;;;;;8.52;3.97;;;16.10;99.90;;;;;;4900955;29;20023;-85
2023/08/18 04:03:31;;;;;;;9.27;3.97;;;16.10;99.90;;;;;;4901652;29;20201;-84
2023/08/18 04:05:57;;;;;;;6.78;4.13;;;16.00;99.90;;;;;;4899936;29;20064;-84
2023/08/18 04:08:23;;;;;;;5.72;4.00;;;16.00;99.90;;;;;;4900601;29;20034;-84
2023/08/18 04:10:48;;;;;;;5.20;4.00;;;15.90;99.90;;;;;;4902132;29;20025;-85
2023/08/18 04:13:14;;;;;;;4.53;4.03;;;15.80;99.90;;;;;;4899571;29;20028;-84
2023/08/18 04:15:39;;;;;;;5.35;3.58;;;15.80;99.90;;;;;;4901918;29;20062;-84
2023/08/18 04:18:05;;;;;;;7.07;4.22;;;15.70;99.90;;;;;;4899762;29;20052;-84
2023/08/18 04:20:31;;;;;;;6.20;3.90;;;15.70;99.90;;;;;;4904745;29;20111;-84
2023/08/18 04:22:57;;;;;;;8.30;4.40;;;15.80;99.90;;;;;;4903839;29;20028;-84
2023/08/18 04:25:23;;;;;;;7.32;4.22;;;15.80;99.90;;;;;;4904355;29;20534;-85
2023/08/18 04:27:48;;;;;;;8.40;4.63;;;15.90;99.90;;;;;;4903344;29;20472;-85
2023/08/18 04:30:14;;;;;;;7.55;4.63;;;15.90;99.90;;;;;;4900616;29;20078;-85
2023/08/18 04:32:41;;;;;;;6.53;4.40;;;15.90;99.90;;;;;;4901543;29;20743;-85
2023/08/18 04:35:06;;;;;;;4.53;4.05;;;15.90;99.90;;;;;;4901433;29;20040;-85
2023/08/18 04:37:32;;;;;;;7.43;5.00;;;15.90;99.90;;;;;;4900237;29;20028;-86
2023/08/18 04:39:58;;;;;;;5.35;3.97;;;16.00;99.90;;;;;;4899999;29;20028;-86
2023/08/18 04:42:23;;;;;;;8.45;4.90;;;16.00;99.90;;;;;;4902646;29;20111;-85
2023/08/18 04:44:50;;;;;;;12.25;5.10;;;16.00;99.90;;;;;;4900815;29;20043;-85
2023/08/18 04:47:16;;;;;;;8.65;5.10;;;16.10;99.90;;;;;;4899037;29;20170;-85
2023/08/18 04:49:41;;;;;;;9.55;5.10;;;16.10;99.90;;;;;;4900109;29;20050;-85
2023/08/18 04:52:10;;;;;;;9.15;4.43;;;16.20;99.90;;;;;;4901420;29;20036;-86
2023/08/18 04:54:35;;;;;;;6.70;4.75;;;16.20;99.90;;;;;;4899112;29;20024;-84
2023/08/18 04:57:03;;;;;;;7.07;4.75;;;16.30;99.90;;;;;;4898540;29;20555;-83
2023/08/18 04:59:29;;;;;;;8.50;5.30;;;16.30;99.90;;;;;;4899347;29;20044;-86
2023/08/18 05:01:55;;;;;;;12.93;5.28;;;16.40;99.90;;;;;;4861184;29;1043584;-83
2023/08/18 05:04:21;;;;;;;7.45;5.25;;;16.40;99.90;;;;;;4898823;29;20039;-83
2023/08/18 05:06:47;;;;;;;9.10;5.00;;;16.50;99.90;;;;;;4900482;29;20047;-84
2023/08/18 05:09:13;;;;;;;8.88;4.93;;;16.50;99.90;;;;;;4901476;29;20037;-83
2023/08/18 05:11:38;;;;;;;7.93;5.15;;;16.60;99.90;;;;;;4897976;29;20028;-79
2023/08/18 05:14:04;;;;;;;9.45;5.88;;;16.60;99.90;;;;;;4896361;29;20138;-79
2023/08/18 05:16:29;;;;;;;9.85;5.40;;;16.70;99.90;;;;;;4897773;29;20067;-81
2023/08/18 05:18:55;;;;;;;10.93;5.50;;;16.70;99.90;;;;;;4898062;29;20361;-88
2023/08/18 05:21:21;;;;;;;8.38;5.03;;;16.70;99.90;;;;;;4897681;29;20072;-80
2023/08/18 05:23:47;;;;;;;8.85;5.38;;;16.70;99.90;;;;;;4898964;29;20065;-87
2023/08/18 05:26:13;;;;;;;7.93;5.32;;;16.80;99.90;;;;;;4900625;29;20032;-85
2023/08/18 05:28:39;;;;;;;9.98;4.90;;;16.80;99.90;;;;;;4899909;29;20032;-84
2023/08/18 05:31:06;;;;;;;8.38;5.03;;;16.80;99.90;;;;;;4901718;29;20039;-85
2023/08/18 05:33:32;;;;;;;15.43;5.28;;;16.90;99.90;;;;;;4900058;29;20032;-85
2023/08/18 05:35:59;;;;;;;7.22;5.50;;;16.90;99.90;;;;;;4901168;29;20043;-88
2023/08/18 05:38:24;;;;;;;8.38;5.53;;;16.90;99.90;;;;;;4900218;29;20129;-82
2023/08/18 05:40:50;;;;;;;10.27;5.35;;;17.00;99.90;;;;;;4897764;29;20097;-82
2023/08/18 05:43:18;;;;;;;7.50;4.90;;;17.10;99.90;;;;;;4900881;29;20024;-82
2023/08/18 05:45:46;;;;;;;6.35;4.72;;;17.10;99.90;;;;;;4897006;29;20033;-85
2023/08/18 05:48:12;;;;;;;12.25;5.85;;;17.20;99.90;;;;;;4899554;29;20187;-83
2023/08/18 05:50:37;;;;;;;10.15;5.72;;;17.20;99.90;;;;;;4899086;29;20526;-83
2023/08/18 05:53:04;;;;;;;12.70;5.70;;;17.30;99.90;;;;;;4900498;29;20020;-83
2023/08/18 05:55:30;;;;;;;10.43;4.97;;;17.30;99.90;;;;;;4898405;29;20029;-82
2023/08/18 05:58:01;;;;;;;8.85;4.88;;;17.40;99.90;;;;;;4896986;29;20040;-84
2023/08/18 06:00:28;;;;;;;8.88;4.88;;;17.50;99.90;;;;;;4899029;29;20089;-83
2023/08/18 06:02:54;;;;;;;8.23;4.43;;;17.60;99.90;;;;;;4899921;29;20114;-84
2023/08/18 06:05:20;;;;;;;6.80;4.43;;;17.70;99.90;;;;;;4899248;29;20071;-84
2023/08/18 06:07:46;;;;;;;7.00;4.55;;;17.80;99.90;;;;;;4900858;29;20039;-84
2023/08/18 06:10:11;;;;;;;10.45;5.00;;;17.90;99.90;;;;;;4899893;29;20039;-83
2023/08/18 06:12:40;;;;;;;7.72;4.75;;;18.00;99.90;;;;;;4898830;29;20105;-83
2023/08/18 06:15:08;;;;;;;8.85;4.50;;;18.10;99.90;;;;;;4900094;29;20032;-84
2023/08/18 06:17:34;;;;;;;7.95;4.30;;;18.20;99.90;;;;;;4898435;29;20071;-83
2023/08/18 06:20:00;;;;;;;7.53;4.22;;;18.30;99.90;;;;;;4899643;29;20036;-82
2023/08/18 06:22:25;;;;;;;11.70;4.88;;;18.50;99.90;;;;;;4900940;29;20092;-83
2023/08/18 06:24:51;;;;;;;9.00;4.75;;;18.60;99.90;;;;;;4904438;29;20040;-83
2023/08/18 06:27:17;;;;;;;8.02;4.18;;;18.70;99.90;;;;;;4902660;29;20036;-83
2023/08/18 06:29:42;;;;;;;11.45;4.68;;;18.80;99.90;;;;;;4904121;29;20036;-86
2023/08/18 06:32:08;;;;;;;7.18;4.15;;;18.90;99.90;;;;;;4903135;29;20055;-82
2023/08/18 06:34:33;;;;;;;7.53;4.80;;;19.00;99.90;;;;;;4903727;29;20060;-83
2023/08/18 06:37:00;;;;;;;8.60;4.80;;;19.10;99.90;;;;;;4903384;29;20075;-84
2023/08/18 06:39:25;;;;;;;8.93;4.97;;;19.30;99.90;;;;;;4903310;29;20100;-82
2023/08/18 06:41:51;;;;;;;11.27;4.57;;;19.40;99.90;;;;;;4904179;29;20096;-83
2023/08/18 06:44:16;;;;;;;10.38;5.30;;;19.50;99.90;;;;;;4905292;29;21452;-85
2023/08/18 06:46:42;;;;;;;9.63;5.25;;;19.60;99.90;;;;;;4903099;29;20548;-83
2023/08/18 06:49:07;;;;;;;7.15;4.30;;;19.60;99.90;;;;;;4902529;29;20024;-84
2023/08/18 06:51:33;;;;;;;6.80;4.00;;;19.70;99.90;;;;;;4904009;29;20084;-83
2023/08/18 06:53:58;;;;;;;5.53;3.75;;;19.80;99.90;;;;;;4904653;29;20036;-85
2023/08/18 06:56:24;;;;;;;13.02;4.00;;;19.80;99.90;;;;;;4903032;29;20396;-82
2023/08/18 06:58:49;;;;;;;6.20;4.03;;;19.90;99.90;;;;;;4903356;29;20112;-84
2023/08/18 07:01:15;;;;;;;10.30;3.78;;;20.00;99.90;;;;;;4901806;29;20170;-82
2023/08/18 07:03:40;;;;;;;5.05;3.47;;;20.00;99.90;;;;;;4903311;29;20411;-83
2023/08/18 07:06:06;;;;;;;7.07;3.38;;;20.10;99.90;;;;;;4903029;29;20036;-83
2023/08/18 07:08:32;;;;;;;5.97;3.30;;;20.10;99.90;;;;;;4903293;29;20028;-82
2023/08/18 07:10:58;;;;;;;5.40;4.05;;;20.20;99.90;;;;;;4903038;29;20039;-82
2023/08/18 07:13:23;;;;;;;7.95;3.47;;;20.30;99.90;;;;;;4899973;29;20028;-84
2023/08/18 07:15:49;;;;;;;5.38;2.90;;;20.30;99.90;;;;;;4900549;29;20112;-82
2023/08/18 07:18:16;;;;;;;4.65;3.05;;;20.40;99.90;;;;;;4901793;29;20146;-84
2023/08/18 07:20:43;;;;;;;8.07;2.80;;;20.50;99.90;;;;;;4902673;29;20531;-84
2023/08/18 07:23:09;;;;;;;4.72;3.33;;;20.50;99.90;;;;;;4903828;29;20699;-83
2023/08/18 07:25:34;;;;;;;7.07;3.20;;;20.60;99.90;;;;;;4902225;29;20035;-82
2023/08/18 07:28:00;;;;;;;5.80;3.33;;;20.70;99.90;;;;;;4899099;29;20024;-82
2023/08/18 07:30:26;;;;;;;6.07;3.20;;;20.70;99.90;;;;;;4901698;29;20033;-82
2023/08/18 07:32:54;;;;;;;5.65;3.42;;;20.80;99.90;;;;;;4898375;29;20032;-82
2023/08/18 07:35:20;;;;;;;7.70;2.97;;;20.80;99.90;;;;;;4900789;29;20028;-83
2023/08/18 07:37:45;;;;;;;4.85;2.67;;;20.80;99.90;;;;;;4901037;29;20032;-82
2023/08/18 07:40:11;;;;;;;8.05;2.42;;;20.90;99.90;;;;;;4902231;29;20095;-85
2023/08/18 07:42:38;;;;;;;3.53;2.10;;;20.90;99.90;;;;;;4898450;29;20028;-84
2023/08/18 07:45:04;;;;;;;3.95;2.55;;;21.10;99.90;;;;;;4899197;29;20043;-82
2023/08/18 07:47:30;;;;;;;4.30;2.15;;;21.10;99.90;;;;;;4899572;29;20059;-82
2023/08/18 07:49:56;;;;;;;4.05;2.30;;;21.20;99.90;;;;;;4899117;29;20491;-83
2023/08/18 07:52:21;;;;;;;4.45;2.38;;;21.30;99.90;;;;;;4899911;29;21154;-83
2023/08/18 07:54:47;;;;;;;4.35;2.35;;;21.30;99.90;;;;;;4899730;29;20025;-82
2023/08/18 07:57:12;;;;;;;4.68;2.10;;;21.30;99.90;;;;;;4903067;29;20666;-82
2023/08/18 07:59:38;;;;;;;3.72;2.13;;;21.30;99.90;;;;;;4903582;29;20176;-82
2023/08/18 08:02:03;;;;;;;3.08;1.77;;;21.40;99.90;;;;;;4903597;29;20032;-83
2023/08/18 08:04:29;;;;;;;2.42;1.83;;;21.50;99.90;;;;;;4904770;29;20123;-82
2023/08/18 08:06:56;;;;;;;4.25;2.20;;;21.50;99.90;;;;;;4902192;29;20039;-82
2023/08/18 08:09:26;;;;;;;4.32;1.88;;;21.50;99.90;;;;;;4906112;29;20088;-86
2023/08/18 08:11:52;;;;;;;3.50;1.85;;;21.60;99.90;;;;;;4904434;29;20051;-84
2023/08/18 08:14:19;;;;;;;5.13;2.10;;;21.60;99.90;;;;;;4898962;29;20076;-81
2023/08/18 08:16:45;;;;;;;4.53;2.17;;;21.70;99.90;;;;;;4900107;29;20403;-82
2023/08/18 08:19:11;;;;;;;3.50;2.10;;;21.80;99.90;;;;;;4902053;29;20076;-82
2023/08/18 08:21:38;;;;;;;3.28;2.15;;;21.90;99.90;;;;;;4903215;29;20377;-82
2023/08/18 08:24:04;;;;;;;4.97;2.40;;;21.90;99.90;;;;;;4901435;29;20028;-84
2023/08/18 08:26:30;;;;;;;4.95;2.28;;;22.00;99.90;;;;;;4900510;29;21519;-86
2023/08/18 08:28:55;;;;;;;3.83;2.20;;;22.00;99.90;;;;;;4903596;29;20040;-86
2023/08/18 08:31:21;;;;;;;4.00;2.13;;;22.00;99.90;;;;;;4900934;29;20028;-82
2023/08/18 08:33:47;;;;;;;3.28;2.05;;;22.10;99.90;;;;;;4899950;29;20099;-81
2023/08/18 08:36:12;;;;;;;4.65;1.92;;;22.10;99.90;;;;;;4898137;29;20054;-82
2023/08/18 08:38:38;;;;;;;5.25;2.03;;;22.20;99.90;;;;;;4900471;29;21425;-83
2023/08/18 08:41:04;;;;;;;5.68;2.28;;;22.30;99.90;;;;;;4899063;29;20441;-83
2023/08/18 08:43:30;;;;;;;4.32;2.25;;;22.40;99.90;;;;;;4899077;29;20039;-84
2023/08/18 08:45:58;;;;;;;3.85;2.20;;;22.40;99.90;;;;;;4900105;29;20032;-81
2023/08/18 08:48:29;;;;;;;5.13;2.47;;;22.50;99.90;;;;;;4898523;29;20036;-82
2023/08/18 08:50:58;;;;;;;3.67;2.28;;;22.60;99.90;;;;;;4898333;29;20815;-82
2023/08/18 08:53:35;;;;;;;6.93;2.55;;;22.70;99.90;;;;;;4897765;29;20043;-81
2023/08/18 08:56:02;;;;;;;3.20;2.15;;;22.70;99.90;;;;;;4898884;29;20036;-82
2023/08/18 08:58:31;;;;;;;5.10;2.45;;;22.90;99.90;;;;;;4897992;29;20111;-81
2023/08/18 09:01:01;;;;;;;5.55;2.50;;;22.90;99.90;;;;;;4897811;29;20057;-82
2023/08/18 09:03:27;;;;;;;5.47;2.13;;;23.00;99.90;;;;;;4898425;29;20162;-82
2023/08/18 09:05:57;;;;;;;4.10;1.80;;;23.10;99.90;;;;;;4898064;29;20032;-82
2023/08/18 09:08:22;;;;;;;5.45;2.25;;;23.30;99.90;;;;;;4898554;29;20471;-82
2023/08/18 09:10:48;;;;;;;4.82;2.30;;;23.40;99.90;;;;;;4897822;29;20091;-84
2023/08/18 09:13:14;;;;;;;9.05;2.50;;;23.50;99.90;;;;;;4897380;29;20032;-82
2023/08/18 09:15:42;;;;;;;4.70;1.90;;;23.70;99.90;;;;;;4897987;29;20116;-82
2023/08/18 09:18:07;;;;;;;5.45;2.20;;;23.80;99.90;;;;;;4897584;29;20021;-83
2023/08/18 09:20:34;;;;;;;7.80;2.40;;;24.00;99.90;;;;;;4897121;29;20058;-82
2023/08/18 09:23:00;;;;;;;4.55;1.80;;;24.10;99.90;;;;;;4897838;29;20459;-83
2023/08/18 09:25:26;;;;;;;6.57;2.10;;;24.30;99.90;;;;;;4898775;29;20036;-83
2023/08/18 09:27:51;;;;;;;3.70;2.28;;;24.50;99.90;;;;;;4898481;29;20036;-82
2023/08/18 09:30:17;;;;;;;4.82;2.30;;;24.60;99.90;;;;;;4896936;29;20027;-82
2023/08/18 09:32:42;;;;;;;2.53;1.95;;;24.80;99.90;;;;;;4897692;29;20082;-83
2023/08/18 09:35:12;;;;;;;5.68;2.00;;;25.00;99.90;;;;;;4897602;29;20061;-82
2023/08/18 09:37:38;;;;;;;5.30;1.90;;;25.40;99.90;;;;;;4897418;29;20123;-82
2023/08/18 09:40:04;;;;;;;3.90;1.70;;;25.70;99.90;;;;;;4899068;29;20152;-82
2023/08/18 09:42:30;;;;;;;5.55;2.08;;;25.90;99.90;;;;;;4897804;29;21439;-83
2023/08/18 09:44:56;;;;;;;4.50;1.80;;;26.20;99.90;;;;;;4898362;29;20108;-83
2023/08/18 09:47:28;;;;;;;4.47;2.00;;;26.30;99.90;;;;;;4899471;29;20040;-82
2023/08/18 09:49:56;;;;;;;4.75;2.00;;;26.50;99.90;;;;;;4898648;29;20040;-82
2023/08/18 09:52:25;;;;;;;3.70;1.85;;;26.70;99.90;;;;;;4897758;29;20496;-82
2023/08/18 09:55:05;;;;;;;3.72;1.80;;;26.80;99.90;;;;;;4898694;29;20059;-81
2023/08/18 09:58:03;;;;;;;3.70;1.85;;;27.00;99.90;;;;;;4900782;29;20044;-82
2023/08/18 10:00:30;;;;;;;3.72;1.95;;;27.30;99.90;;;;;;4900290;29;20040;-84
2023/08/18 10:02:59;;;;;;;3.30;1.95;;;27.40;99.90;;;;;;4900837;29;20047;-84
2023/08/18 10:05:27;;;;;;;5.00;2.00;;;27.40;99.90;;;;;;4901829;29;20543;-82
2023/08/18 10:07:53;;;;;;;9.07;2.47;;;27.70;99.90;;;;;;4902450;29;20440;-82
2023/08/18 10:10:21;;;;;;;3.00;1.90;;;28.00;99.90;;;;;;4901433;29;20048;-82
2023/08/18 10:12:46;;;;;;;3.90;1.85;;;28.10;99.90;;;;;;4898643;29;20116;-85
2023/08/18 10:15:12;;;;;;;4.75;2.00;;;28.30;99.90;;;;;;4902652;29;20103;-82
2023/08/18 10:17:38;;;;;;;5.07;1.98;;;28.40;99.90;;;;;;4900543;29;20031;-84
2023/08/18 10:20:04;;;;;;;5.90;2.03;;;28.60;99.90;;;;;;4900077;29;20037;-82
2023/08/18 10:22:32;;;;;;;3.28;2.00;;;28.50;99.90;;;;;;4900513;29;20028;-83
2023/08/18 10:24:58;;;;;;;3.42;1.90;;;28.50;99.90;;;;;;4899009;29;20024;-83
2023/08/18 10:27:26;;;;;;;4.43;1.90;;;28.50;99.90;;;;;;4900408;29;20089;-85
2023/08/18 10:29:55;;;;;;;3.35;1.60;;;28.60;99.90;;;;;;4902260;29;20139;-83
2023/08/18 10:32:22;;;;;;;4.22;1.90;;;28.70;99.90;;;;;;4900571;29;20032;-81
2023/08/18 10:34:50;;;;;;;3.60;1.70;;;28.90;99.90;;;;;;4900788;29;20028;-82
2023/08/18 10:37:19;;;;;;;4.75;1.80;;;28.90;99.90;;;;;;4900008;29;20036;-82
2023/08/18 10:39:45;;;;;;;2.90;1.75;;;29.10;99.90;;;;;;4898890;29;20095;-82
2023/08/18 10:42:15;;;;;;;4.65;1.90;;;29.10;99.90;;;;;;4898508;29;20032;-82
2023/08/18 10:45:26;;;;;;;3.67;1.88;;;29.20;99.90;;;;;;4900565;29;20106;-84
2023/08/18 10:47:52;;;;;;;4.53;1.85;;;29.30;99.90;;;;;;4851415;29;20155;-82
2023/08/18 10:50:19;;;;;;;4.72;1.60;;;29.40;99.90;;;;;;4893197;29;20511;-84
2023/08/18 10:52:45;;;;;;;3.13;1.60;;;29.60;99.90;;;;;;4900342;29;20111;-82
2023/08/18 10:55:10;;;;;;;2.95;1.60;;;29.90;99.90;;;;;;4899042;29;20031;-83
2023/08/18 10:57:37;;;;;;;3.15;1.83;;;30.00;99.90;;;;;;4900179;29;20032;-82
2023/08/18 11:00:10;;;;;;;5.00;1.88;;;29.90;99.90;;;;;;4901903;29;20029;-82
2023/08/18 11:02:37;;;;;;;3.08;1.67;;;29.90;99.90;;;;;;4902091;29;20036;-83
2023/08/18 11:05:04;;;;;;;3.20;1.67;;;30.20;99.90;;;;;;4901212;29;20623;-83
2023/08/18 11:07:30;;;;;;;5.25;1.80;;;30.10;99.90;;;;;;4899127;29;21462;-82
2023/08/18 11:09:56;;;;;;;3.92;1.90;;;30.20;99.90;;;;;;4899627;29;20059;-85
2023/08/18 11:12:21;;;;;;;4.15;2.42;;;30.50;99.90;;;;;;4899330;29;20111;-83
2023/08/18 11:14:47;;;;;;;4.25;1.90;;;30.70;99.90;;;;;;4899999;29;20027;-82
2023/08/18 11:17:13;;;;;;;5.88;1.95;;;30.70;99.90;;;;;;4897584;29;20050;-83
2023/08/18 11:19:38;;;;;;;4.47;1.95;;;30.70;99.90;;;;;;4899808;29;20099;-83
2023/08/18 11:22:04;;;;;;;3.75;1.85;;;30.70;99.90;;;;;;4899105;29;20024;-86
2023/08/18 11:24:30;;;;;;;5.75;1.83;;;30.80;99.90;;;;;;4898095;29;20037;-84
2023/08/18 11:26:56;;;;;;;2.70;1.70;;;30.90;99.90;;;;;;4898205;29;20028;-82
2023/08/18 11:29:22;;;;;;;3.38;1.88;;;31.20;99.90;;;;;;4896813;29;20096;-82
2023/08/18 11:31:48;;;;;;;3.72;1.85;;;31.40;99.90;;;;;;4901123;29;20028;-82
2023/08/18 11:34:14;;;;;;;3.78;2.00;;;31.40;99.90;;;;;;4899308;29;20032;-86
2023/08/18 11:36:40;;;;;;;2.83;1.80;;;31.30;99.90;;;;;;4902726;29;20035;-82
2023/08/18 11:39:09;;;;;;;3.40;1.50;;;31.40;99.90;;;;;;4903445;29;20032;-85
2023/08/18 11:41:38;;;;;;;4.95;1.83;;;31.70;99.90;;;;;;4903682;29;20039;-83
2023/08/18 11:44:06;;;;;;;26.23;2.10;;;31.50;99.90;;;;;;4903179;29;20044;-83
2023/08/18 11:46:35;;;;;;;2.90;1.70;;;31.50;99.90;;;;;;4902103;29;20029;-84
2023/08/18 11:49:03;;;;;;;2.60;1.90;;;31.40;99.90;;;;;;4901342;29;20057;-87
2023/08/18 11:51:30;;;;;;;3.25;1.70;;;31.50;99.90;;;;;;4902360;29;20036;-87
2023/08/18 11:53:56;;;;;;;2.83;2.20;;;31.70;99.90;;;;;;4901421;29;20748;-83
2023/08/18 11:56:25;;;;;;;2.65;1.75;;;31.80;99.90;;;;;;4900563;29;20033;-86
2023/08/18 11:58:51;;;;;;;2.83;1.70;;;31.90;99.90;;;;;;4900680;29;20033;-84
2023/08/18 12:01:17;;;;;;;3.15;1.77;;;32.00;99.90;;;;;;4901986;29;20024;-85
2023/08/18 12:03:54;;;;;;;5.13;1.65;;;32.00;99.90;;;;;;4903760;29;21433;-85
2023/08/18 12:06:23;;;;;;;3.90;1.65;;;32.10;99.90;;;;;;4902596;29;20084;-84
2023/08/18 12:08:49;;;;;;;4.10;1.95;;;32.40;99.90;;;;;;4902995;29;20031;-84
2023/08/18 12:11:14;;;;;;;4.00;1.50;;;32.40;99.90;;;;;;4898418;29;20028;-82
2023/08/18 12:13:40;;;;;;;3.67;1.50;;;32.40;99.90;;;;;;4899566;29;20028;-84
2023/08/18 12:16:05;;;;;;;2.28;1.63;;;32.50;99.90;;;;;;4900041;29;20786;-85
2023/08/18 12:18:31;;;;;;;2.10;1.50;;;32.60;99.90;;;;;;4900321;29;20030;-85
2023/08/18 12:20:56;;;;;;;2.85;1.65;;;32.40;98.60;;;;;;4901181;29;20036;-84
2023/08/18 12:23:22;;;;;;;4.05;1.77;;;32.40;98.80;;;;;;4901633;29;20134;-84
2023/08/18 12:25:48;;;;;;;2.47;1.48;;;32.30;99.60;;;;;;4900118;29;20087;-84
2023/08/18 12:28:14;;;;;;;2.60;1.60;;;32.30;95.70;;;;;;4898911;29;20713;-87
2023/08/18 12:30:39;;;;;;;2.42;1.65;;;32.50;96.00;;;;;;4899488;29;20043;-86
2023/08/18 12:33:05;;;;;;;3.75;1.80;;;32.40;97.10;;;;;;4901142;29;20025;-83
2023/08/18 12:35:31;;;;;;;2.60;1.60;;;32.20;96.30;;;;;;4901849;29;21409;-85
2023/08/18 12:37:56;;;;;;;2.58;1.67;;;32.40;95.80;;;;;;4899556;29;20444;-84
2023/08/18 12:40:22;;;;;;;1.98;1.50;;;32.40;96.60;;;;;;4902043;29;20025;-85
2023/08/18 12:42:47;;;;;;;3.83;1.77;;;32.40;98.40;;;;;;4899737;29;20028;-86